createdAt,value
2022-08-23T00:01:39.030Z,28.06
2022-08-23T00:03:42.064Z,27.91
2022-08-23T00:05:44.971Z,28.50
2022-08-23T00:07:46.544Z,28.54
2022-08-23T00:09:48.207Z,28.16
2022-08-23T00:11:52.852Z,28.52
2022-08-23T00:13:54.767Z,28.84
2022-08-23T00:15:56.387Z,28.77
2022-08-23T00:17:57.966Z,28.94
2022-08-23T00:19:59.515Z,29.04
2022-08-23T00:22:02.809Z,28.70
2022-08-23T00:24:05.886Z,28.91
2022-08-23T00:26:07.660Z,28.83
2022-08-23T00:28:14.718Z,28.68
2022-08-23T00:30:17.368Z,28.78
2022-08-23T00:32:22.577Z,29.20
2022-08-23T00:34:24.251Z,29.52
2022-08-23T00:36:25.800Z,29.25
2022-08-23T00:38:34.185Z,29.33
2022-08-23T00:40:36.795Z,28.96
2022-08-23T00:42:43.909Z,28.99
2022-08-23T00:44:45.570Z,29.34
2022-08-23T00:46:51.468Z,30.08
2022-08-23T00:48:54.265Z,28.93
2022-08-23T00:51:02.904Z,29.56
2022-08-23T00:53:09.932Z,28.83
2022-08-23T00:55:13.052Z,29.26
2022-08-23T00:57:16.835Z,30.90
2022-08-23T00:59:18.737Z,29.75
2022-08-23T01:01:20.352Z,29.05
2022-08-23T01:03:24.461Z,29.38
2022-08-23T01:05:33.003Z,29.19
2022-08-23T01:07:44.943Z,29.79
2022-08-23T01:09:48.545Z,30.61
2022-08-23T01:11:58.258Z,30.91
2022-08-23T01:14:06.175Z,30.88
2022-08-23T01:16:13.603Z,30.62
2022-08-23T01:18:17.819Z,31.32
2022-08-23T01:20:26.921Z,30.82
2022-08-23T01:22:36.312Z,30.41
2022-08-23T01:24:54.120Z,30.80
2022-08-23T01:27:01.927Z,30.57
2022-08-23T01:29:06.396Z,30.76
2022-08-23T01:31:08.958Z,32.19
2022-08-23T01:33:10.543Z,30.65
2022-08-23T01:35:12.814Z,31.03
2022-08-23T01:37:14.848Z,30.31
2022-08-23T01:39:16.408Z,30.21
2022-08-23T01:41:19.275Z,30.23
2022-08-23T01:43:22.109Z,30.72
2022-08-23T01:45:23.743Z,30.83
2022-08-23T01:47:25.459Z,30.76
2022-08-23T01:49:27.112Z,31.90
2022-08-23T01:51:28.664Z,31.13
2022-08-23T01:53:30.243Z,31.55
2022-08-23T01:55:31.956Z,30.67
2022-08-23T01:57:35.245Z,31.08
2022-08-23T01:59:37.198Z,30.67
2022-08-23T02:01:38.951Z,32.14
2022-08-23T02:03:40.643Z,31.74
2022-08-23T02:05:42.907Z,31.72
2022-08-23T02:07:44.768Z,31.37
2022-08-23T02:09:46.461Z,31.11
2022-08-23T02:11:49.003Z,32.18
2022-08-23T02:13:53.983Z,32.46
2022-08-23T02:15:58.496Z,31.92
2022-08-23T02:18:00.627Z,31.13
2022-08-23T02:20:03.363Z,30.67
2022-08-23T02:22:06.857Z,30.59
2022-08-23T02:24:11.184Z,31.51
2022-08-23T02:26:13.469Z,31.28
2022-08-23T02:28:15.090Z,31.73
2022-08-23T02:30:18.157Z,30.95
2022-08-23T02:32:19.978Z,30.80
2022-08-23T02:34:21.610Z,31.40
2022-08-23T02:36:23.255Z,31.22
2022-08-23T02:38:24.888Z,31.53
2022-08-23T02:40:26.498Z,31.61
2022-08-23T02:42:28.196Z,31.90
2022-08-23T02:44:29.904Z,31.56
2022-08-23T02:46:33.648Z,31.86
2022-08-23T02:48:35.988Z,32.35
2022-08-23T02:50:39.250Z,32.00
2022-08-23T02:52:40.800Z,32.70
2022-08-23T02:54:42.393Z,32.60
2022-08-23T02:56:44.009Z,33.91
2022-08-23T02:58:45.791Z,33.02
2022-08-23T03:00:50.762Z,33.35
2022-08-23T03:02:53.735Z,33.31
2022-08-23T03:04:55.535Z,32.57
2022-08-23T03:06:57.092Z,32.57
2022-08-23T03:08:58.920Z,33.41
2022-08-23T03:11:00.452Z,33.60
2022-08-23T03:13:09.603Z,33.04
2022-08-23T03:15:11.513Z,33.60
2022-08-23T03:17:13.158Z,33.88
2022-08-23T03:19:17.353Z,33.81
2022-08-23T03:21:19.926Z,32.67
2022-08-23T03:23:22.053Z,32.62
2022-08-23T03:25:24.843Z,33.45
2022-08-23T03:27:26.487Z,33.24
2022-08-23T03:29:28.057Z,33.98
2022-08-23T03:31:31.274Z,33.53
2022-08-23T03:33:33.009Z,33.79
2022-08-23T03:35:35.971Z,34.29
2022-08-23T03:37:37.540Z,34.02
2022-08-23T03:39:43.020Z,33.83
2022-08-23T03:41:44.609Z,34.76
2022-08-23T03:43:46.202Z,34.60
2022-08-23T03:45:48.397Z,34.44
2022-08-23T03:47:50.061Z,34.13
2022-08-23T03:49:51.691Z,35.33
2022-08-23T03:51:54.710Z,34.77
2022-08-23T03:53:56.333Z,34.89
2022-08-23T03:55:57.852Z,35.21
2022-08-23T03:57:59.722Z,34.84
2022-08-23T04:00:01.529Z,34.95
2022-08-23T04:02:03.780Z,35.13
2022-08-23T04:04:05.888Z,35.39
2022-08-23T04:06:07.508Z,34.68
2022-08-23T04:08:11.027Z,34.92
2022-08-23T04:10:12.589Z,34.62
2022-08-23T04:12:17.479Z,34.50
2022-08-23T04:14:19.526Z,34.44
2022-08-23T04:16:21.100Z,34.84
2022-08-23T04:18:22.905Z,34.26
2022-08-23T04:20:24.458Z,34.91
2022-08-23T04:22:26.049Z,35.04
2022-08-23T04:24:29.770Z,34.91
2022-08-23T04:26:31.758Z,34.73
2022-08-23T04:28:34.184Z,34.74
2022-08-23T04:30:35.784Z,34.90
2022-08-23T04:32:37.341Z,34.83
2022-08-23T04:34:40.277Z,34.57
2022-08-23T04:36:44.859Z,34.38
2022-08-23T04:38:53.496Z,35.32
2022-08-23T04:40:57.113Z,34.97
2022-08-23T04:42:58.657Z,35.71
2022-08-23T04:45:00.241Z,35.08
2022-08-23T04:47:02.022Z,35.24
2022-08-23T04:49:03.857Z,35.21
2022-08-23T04:51:05.592Z,35.74
2022-08-23T04:53:07.291Z,35.57
2022-08-23T04:55:09.206Z,35.34
2022-08-23T04:57:12.217Z,34.71
2022-08-23T04:59:13.775Z,35.32
2022-08-23T05:01:15.948Z,35.47
2022-08-23T05:03:17.579Z,35.98
2022-08-23T05:05:19.687Z,35.40
2022-08-23T05:07:21.278Z,35.92
2022-08-23T05:09:41.623Z,36.43
2022-08-23T05:11:43.189Z,36.25
2022-08-23T05:13:46.431Z,36.13
2022-08-23T05:15:50.498Z,36.71
2022-08-23T05:17:52.453Z,36.40
2022-08-23T05:19:54.075Z,36.32
2022-08-23T05:21:57.223Z,36.42
2022-08-23T05:24:00.346Z,36.18
2022-08-23T05:26:05.596Z,36.42
2022-08-23T05:28:07.186Z,36.59
2022-08-23T05:30:15.180Z,36.66
2022-08-23T05:32:17.150Z,36.35
2022-08-23T05:34:22.501Z,36.70
2022-08-23T05:36:24.733Z,36.58
2022-08-23T05:38:26.664Z,35.92
2022-08-23T05:40:28.644Z,36.53
2022-08-23T05:42:30.208Z,36.77
2022-08-23T05:44:36.221Z,36.60
2022-08-23T05:46:40.418Z,36.52
2022-08-23T05:48:47.331Z,36.76
2022-08-23T05:50:48.897Z,35.71
2022-08-23T05:52:51.215Z,36.55
2022-08-23T05:54:53.197Z,37.06
2022-08-23T05:56:54.822Z,35.96
2022-08-23T05:59:00.005Z,36.37
2022-08-23T06:01:01.820Z,37.21
2022-08-23T06:03:04.767Z,36.47
2022-08-23T06:05:07.467Z,36.99
2022-08-23T06:07:09.159Z,36.97
2022-08-23T06:09:12.803Z,36.34
2022-08-23T06:11:16.679Z,36.31
2022-08-23T06:13:18.300Z,36.75
2022-08-23T06:15:19.901Z,36.99
2022-08-23T06:17:21.485Z,36.34
2022-08-23T06:19:24.936Z,36.03
2022-08-23T06:21:27.008Z,36.34
2022-08-23T06:23:28.755Z,35.92
2022-08-23T06:25:30.415Z,36.80
2022-08-23T06:27:33.083Z,35.77
2022-08-23T06:29:34.695Z,36.63
2022-08-23T06:31:39.604Z,34.99
2022-08-23T06:33:41.993Z,36.21
2022-08-23T06:35:45.057Z,35.86
2022-08-23T06:37:46.670Z,35.84
2022-08-23T06:39:48.319Z,34.82
2022-08-23T06:41:50.469Z,35.12
2022-08-23T06:43:52.237Z,35.64
2022-08-23T06:45:55.099Z,34.13
2022-08-23T06:48:00.203Z,34.96
2022-08-23T06:50:02.008Z,34.58
2022-08-23T06:52:05.636Z,34.69
2022-08-23T06:54:10.341Z,34.63
2022-08-23T06:56:13.693Z,34.59
2022-08-23T06:58:15.314Z,34.58
2022-08-23T07:00:21.955Z,34.30
2022-08-23T07:02:24.176Z,34.29
2022-08-23T07:04:28.980Z,33.89
2022-08-23T07:06:30.700Z,34.49
2022-08-23T07:08:33.845Z,34.43
2022-08-23T07:10:35.488Z,32.94
2022-08-23T07:12:39.228Z,32.01
2022-08-23T07:14:41.348Z,33.49
2022-08-23T07:16:45.542Z,33.49
2022-08-23T07:18:47.766Z,33.64
2022-08-23T07:20:49.406Z,33.76
2022-08-23T07:22:51.026Z,34.08
2022-08-23T07:24:54.018Z,32.20
2022-08-23T07:26:55.884Z,31.99
2022-08-23T07:28:57.766Z,32.50
2022-08-23T07:31:11.349Z,31.61
2022-08-23T07:33:16.398Z,32.36
2022-08-23T07:35:18.272Z,31.61
2022-08-23T07:37:21.815Z,31.46
2022-08-23T07:39:23.780Z,32.86
2022-08-23T07:41:31.003Z,33.06
2022-08-23T07:43:35.022Z,32.85
2022-08-23T07:45:40.069Z,31.96
2022-08-23T07:47:48.232Z,33.28
2022-08-23T07:49:51.808Z,33.31
2022-08-23T07:51:53.501Z,30.73
2022-08-23T07:53:55.188Z,31.86
2022-08-23T07:55:57.248Z,31.21
2022-08-23T07:58:03.140Z,31.19
2022-08-23T08:00:06.128Z,30.78
2022-08-23T08:02:07.781Z,30.49
2022-08-23T08:04:09.628Z,30.62
2022-08-23T08:06:15.643Z,30.47
2022-08-23T08:08:17.309Z,31.44
2022-08-23T08:10:19.463Z,38.24
2022-08-23T08:12:21.066Z,36.68
2022-08-23T08:14:23.942Z,34.19
2022-08-23T08:16:27.462Z,33.27
2022-08-23T08:18:29.029Z,34.84
2022-08-23T08:20:30.653Z,33.12
2022-08-23T08:22:32.271Z,36.70
2022-08-23T08:24:33.913Z,32.75
2022-08-23T08:26:35.693Z,33.13
2022-08-23T08:28:38.303Z,33.63
2022-08-23T08:30:41.345Z,33.13
2022-08-23T08:32:47.341Z,33.51
2022-08-23T08:34:49.226Z,32.51
2022-08-23T08:36:52.764Z,33.53
2022-08-23T08:39:01.056Z,30.82
2022-08-23T08:41:12.921Z,31.81
2022-08-23T08:43:27.367Z,31.40
2022-08-23T08:45:37.605Z,33.27
2022-08-23T08:47:48.723Z,31.34
2022-08-23T08:49:58.248Z,31.12
2022-08-23T08:52:15.043Z,31.04
2022-08-23T08:54:21.544Z,31.23
2022-08-23T08:56:32.296Z,30.50
2022-08-23T08:58:43.219Z,31.33
2022-08-23T09:00:46.330Z,32.37
2022-08-23T09:02:50.423Z,32.44
2022-08-23T09:04:52.287Z,31.82
2022-08-23T09:07:09.206Z,31.10
2022-08-23T09:09:22.181Z,30.46
2022-08-23T09:11:36.526Z,30.82
2022-08-23T09:14:12.922Z,30.07
2022-08-23T09:16:28.830Z,29.91
2022-08-23T09:18:35.554Z,30.06
2022-08-23T09:20:38.326Z,31.25
2022-08-23T09:22:42.986Z,34.94
2022-08-23T09:24:44.651Z,32.86
2022-08-23T09:26:46.313Z,31.47
2022-08-23T09:28:50.914Z,30.94
2022-08-23T09:30:55.142Z,31.94
2022-08-23T09:33:15.499Z,31.13
2022-08-23T09:35:21.760Z,30.55
2022-08-23T09:37:24.726Z,29.87
2022-08-23T09:39:31.394Z,29.37
2022-08-23T09:41:35.968Z,29.72
2022-08-23T09:43:44.732Z,31.54
2022-08-23T09:45:59.715Z,28.92
2022-08-23T09:48:01.534Z,29.60
2022-08-23T09:50:23.557Z,30.43
2022-08-23T09:52:33.631Z,30.01
2022-08-23T09:54:37.067Z,28.99
2022-08-23T09:56:41.414Z,28.75
2022-08-23T09:58:44.653Z,29.98
2022-08-23T10:01:01.965Z,29.69
2022-08-23T10:03:22.184Z,31.87
2022-08-23T10:05:36.982Z,29.99
2022-08-23T10:07:42.573Z,28.80
2022-08-23T10:09:44.598Z,29.82
2022-08-23T10:11:46.220Z,29.42
2022-08-23T10:13:47.923Z,30.48
2022-08-23T10:16:00.214Z,28.46
2022-08-23T10:18:07.831Z,29.77
2022-08-23T10:20:22.290Z,29.43
2022-08-23T10:22:27.418Z,29.67
2022-08-23T10:24:44.747Z,30.06
2022-08-23T10:27:07.740Z,29.78
2022-08-23T10:29:16.139Z,28.19
2022-08-23T10:31:31.424Z,28.66
2022-08-23T10:33:40.397Z,28.75
2022-08-23T10:35:49.337Z,28.86
2022-08-23T10:38:03.833Z,28.71
2022-08-23T10:40:15.215Z,29.16
2022-08-23T10:42:24.743Z,28.82
2022-08-23T10:44:34.120Z,28.64
2022-08-23T10:46:42.601Z,27.77
2022-08-23T10:48:50.407Z,27.88
2022-08-23T10:50:55.879Z,26.67
2022-08-23T10:53:05.261Z,25.94
2022-08-23T10:55:14.806Z,25.65
2022-08-23T10:57:18.835Z,26.49
2022-08-23T10:59:25.288Z,25.42
2022-08-23T11:01:37.576Z,26.32
2022-08-23T11:03:43.973Z,24.96
2022-08-23T11:06:35.386Z,24.89
2022-08-23T11:08:40.954Z,25.45
2022-08-23T11:10:53.789Z,26.44
2022-08-23T11:13:01.427Z,26.07
2022-08-23T11:15:25.331Z,24.42
2022-08-23T11:17:29.732Z,24.78
2022-08-23T11:19:49.484Z,24.92
2022-08-23T11:21:51.100Z,23.88
2022-08-23T11:24:15.684Z,23.23
2022-08-23T11:27:05.953Z,22.36
2022-08-23T11:29:29.483Z,21.48
2022-08-23T11:31:34.716Z,22.08
2022-08-23T11:33:44.631Z,21.94
2022-08-23T11:35:49.821Z,21.21
2022-08-23T11:37:55.707Z,21.44
2022-08-23T11:40:11.100Z,20.82
2022-08-23T11:42:19.228Z,20.46
2022-08-23T11:44:33.533Z,20.28
2022-08-23T11:46:57.410Z,20.50
2022-08-23T11:49:16.298Z,19.24
2022-08-23T11:51:27.240Z,19.73
2022-08-23T11:53:57.780Z,19.95
2022-08-23T11:56:28.471Z,20.85
2022-08-23T11:58:45.047Z,18.69
2022-08-23T12:01:07.793Z,18.47
2022-08-23T12:03:23.106Z,18.34
2022-08-23T12:05:41.283Z,19.06
2022-08-23T12:07:45.950Z,19.40
2022-08-23T12:09:54.978Z,18.99
2022-08-23T12:12:24.796Z,19.28
2022-08-23T12:14:36.100Z,19.08
2022-08-23T12:16:44.141Z,18.91
2022-08-23T12:18:54.478Z,19.43
2022-08-23T12:20:58.866Z,19.17
2022-08-23T12:23:07.248Z,18.26
2022-08-23T12:25:08.931Z,19.15
2022-08-23T12:27:28.396Z,19.04
2022-08-23T12:29:48.771Z,16.87
2022-08-23T12:32:00.406Z,18.18
2022-08-23T12:34:15.550Z,17.97
2022-08-23T12:36:24.379Z,17.84
2022-08-23T12:38:48.970Z,17.74
2022-08-23T12:40:54.443Z,16.64
2022-08-23T12:43:04.360Z,13.69
2022-08-23T12:45:11.615Z,15.36
2022-08-23T12:47:18.495Z,14.20
2022-08-23T12:49:29.425Z,13.54
2022-08-23T12:51:31.266Z,14.33
2022-08-23T12:53:36.066Z,16.83
2022-08-23T12:55:41.004Z,14.46
2022-08-23T12:57:51.843Z,15.12
2022-08-23T13:00:17.199Z,16.07
2022-08-23T13:02:26.144Z,16.51
2022-08-23T13:04:28.243Z,18.28
2022-08-23T13:06:34.629Z,18.14
2022-08-23T13:08:41.087Z,19.04
2022-08-23T13:10:44.495Z,19.92
2022-08-23T13:12:46.378Z,16.77
2022-08-23T13:14:50.306Z,17.20
2022-08-23T13:16:54.915Z,16.94
2022-08-23T13:19:14.553Z,16.55
2022-08-23T13:21:28.196Z,17.70
2022-08-23T13:23:29.821Z,16.71
2022-08-23T13:25:33.926Z,17.48
2022-08-23T13:27:49.615Z,15.67
2022-08-23T13:29:57.896Z,16.73
2022-08-23T13:32:03.192Z,16.92
2022-08-23T13:34:07.220Z,16.67
2022-08-23T13:36:14.666Z,15.48
2022-08-23T13:38:22.266Z,15.68
2022-08-23T13:40:27.126Z,16.25
2022-08-23T13:42:34.499Z,15.45
2022-08-23T13:44:36.284Z,16.16
2022-08-23T13:46:45.495Z,14.03
2022-08-23T13:48:50.579Z,13.34
2022-08-23T13:50:54.216Z,14.17
2022-08-23T13:53:15.248Z,15.15
2022-08-23T13:55:17.248Z,12.37
2022-08-23T13:57:19.090Z,12.53
2022-08-23T13:59:31.159Z,11.77
2022-08-23T14:01:33.713Z,11.80
2022-08-23T14:03:35.346Z,12.91
2022-08-23T14:05:37.022Z,12.81
2022-08-23T14:07:39.979Z,12.86
2022-08-23T14:09:42.334Z,13.50
2022-08-23T14:11:44.915Z,13.31
2022-08-23T14:13:48.475Z,15.34
2022-08-23T14:15:58.820Z,13.89
2022-08-23T14:18:12.584Z,15.25
2022-08-23T14:22:37.452Z,14.67
2022-08-23T14:24:40.869Z,15.13
2022-08-23T14:26:51.714Z,15.06
2022-08-23T14:28:57.001Z,16.50
2022-08-23T14:30:58.780Z,16.01
2022-08-23T14:33:00.783Z,15.87
2022-08-23T14:35:02.535Z,17.26
2022-08-23T14:39:26.214Z,16.47
2022-08-23T14:41:30.616Z,18.78
2022-08-23T14:43:32.441Z,17.38
2022-08-23T14:45:34.075Z,17.07
2022-08-23T14:47:35.937Z,19.65
2022-08-23T14:49:38.608Z,21.43
2022-08-23T14:51:43.394Z,22.38
2022-08-23T14:53:46.503Z,22.75
2022-08-23T14:55:48.358Z,22.37
2022-08-23T14:57:51.488Z,23.28
2022-08-23T14:59:53.133Z,17.70
2022-08-23T15:01:56.336Z,18.20
2022-08-23T15:03:58.017Z,17.47
2022-08-23T15:05:59.708Z,17.14
2022-08-23T15:08:01.417Z,17.92
2022-08-23T15:10:04.574Z,21.40
2022-08-23T15:12:58.367Z,21.51
2022-08-23T15:14:30.227Z,17.84
2022-08-23T15:16:32.174Z,18.06
2022-08-23T15:18:34.976Z,22.34
2022-08-23T15:20:38.418Z,23.23
2022-08-23T15:22:44.312Z,21.27
2022-08-23T15:24:46.300Z,23.13
2022-08-23T15:26:48.096Z,22.56
2022-08-23T15:28:50.103Z,19.09
2022-08-23T15:30:53.267Z,21.80
2022-08-23T15:32:56.890Z,23.96
2022-08-23T15:34:58.575Z,22.96
2022-08-23T15:37:01.166Z,20.06
2022-08-23T15:39:02.978Z,19.49
2022-08-23T15:41:05.910Z,22.74
2022-08-23T15:43:07.791Z,19.43
2022-08-23T15:45:10.449Z,20.69
2022-08-23T15:47:19.950Z,19.97
2022-08-23T15:49:23.669Z,23.80
2022-08-23T15:51:25.576Z,21.86
2022-08-23T15:53:27.285Z,24.16
2022-08-23T15:55:31.823Z,23.00
2022-08-23T15:57:41.000Z,24.27
2022-08-23T15:59:42.745Z,25.10
2022-08-23T16:01:44.586Z,21.62
2022-08-23T16:03:47.848Z,21.76
2022-08-23T16:05:52.239Z,25.01
2022-08-23T16:07:56.731Z,25.50
2022-08-23T16:10:01.205Z,25.06
2022-08-23T16:12:04.823Z,25.48
2022-08-23T16:14:06.446Z,25.55
2022-08-23T16:16:14.575Z,25.73
2022-08-23T16:18:16.606Z,25.29
2022-08-23T16:20:19.663Z,19.58
2022-08-23T16:22:21.362Z,23.81
2022-08-23T16:24:24.694Z,23.31
2022-08-23T16:26:34.685Z,21.22
2022-08-23T16:28:37.235Z,24.53
2022-08-23T16:30:39.125Z,24.90
2022-08-23T16:32:41.075Z,24.36
2022-08-23T16:34:42.770Z,23.09
2022-08-23T16:36:51.677Z,24.37
2022-08-23T16:38:54.786Z,24.83
2022-08-23T16:40:56.781Z,25.72
2022-08-23T16:42:58.748Z,26.12
2022-08-23T16:45:00.564Z,26.21
2022-08-23T16:47:03.466Z,26.13
2022-08-23T16:49:05.127Z,26.66
2022-08-23T16:51:06.766Z,26.52
2022-08-23T16:53:09.998Z,26.22
2022-08-23T16:55:12.549Z,26.05
2022-08-23T16:57:14.147Z,26.19
2022-08-23T16:59:15.787Z,26.28
2022-08-23T17:01:18.781Z,26.52
2022-08-23T17:03:20.631Z,26.56
2022-08-23T17:05:22.324Z,26.05
2022-08-23T17:07:24.254Z,26.45
2022-08-23T17:09:28.709Z,26.52
2022-08-23T17:11:32.989Z,26.53
2022-08-23T17:13:34.644Z,26.33
2022-08-23T17:15:36.904Z,26.38
2022-08-23T17:17:38.575Z,26.70
2022-08-23T17:19:41.904Z,26.39
2022-08-23T17:21:43.627Z,26.51
2022-08-23T17:23:45.332Z,26.62
2022-08-23T17:25:48.451Z,26.41
2022-08-23T17:27:53.276Z,26.65
2022-08-23T17:29:54.892Z,26.67
2022-08-23T17:31:56.539Z,26.95
2022-08-23T17:33:58.289Z,27.25
2022-08-23T17:36:00.035Z,27.51
2022-08-23T17:38:02.563Z,27.48
2022-08-23T17:40:10.904Z,27.78
2022-08-23T17:42:16.452Z,28.44
2022-08-23T17:44:20.489Z,28.13
2022-08-23T17:46:22.259Z,28.25
2022-08-23T17:48:23.961Z,28.33
2022-08-23T17:50:25.849Z,28.42
2022-08-23T17:52:27.692Z,28.39
2022-08-23T17:54:29.653Z,28.44
2022-08-23T17:56:32.153Z,28.43
2022-08-23T17:58:35.140Z,28.50
2022-08-23T18:00:37.982Z,28.85
2022-08-23T18:02:39.815Z,28.39
2022-08-23T18:04:41.558Z,28.87
2022-08-23T18:06:43.269Z,28.77
2022-08-23T18:08:45.537Z,28.78
2022-08-23T18:10:47.226Z,25.69
2022-08-23T18:12:49.087Z,27.13
2022-08-23T18:14:52.015Z,24.51
2022-08-23T18:16:54.088Z,24.35
2022-08-23T18:18:56.629Z,24.86
2022-08-23T18:20:58.445Z,25.37
2022-08-23T18:23:00.100Z,25.06
2022-08-23T18:25:01.709Z,24.89
2022-08-23T18:27:03.452Z,23.94
2022-08-23T18:29:07.207Z,24.45
2022-08-23T18:31:15.540Z,23.75
2022-08-23T18:33:18.966Z,24.86
2022-08-23T18:35:21.330Z,23.98
2022-08-23T18:37:22.931Z,23.72
2022-08-23T18:39:31.909Z,24.20
2022-08-23T18:41:34.544Z,25.24
2022-08-23T18:43:37.317Z,24.77
2022-08-23T18:45:39.551Z,24.78
2022-08-23T18:47:42.757Z,25.11
2022-08-23T18:49:44.414Z,23.98
2022-08-23T18:51:46.133Z,25.79
2022-08-23T18:53:47.883Z,24.94
2022-08-23T18:55:49.944Z,24.90
2022-08-23T18:57:51.552Z,25.14
2022-08-23T18:59:53.159Z,25.05
2022-08-23T19:01:55.106Z,24.19
2022-08-23T19:04:00.753Z,24.84
2022-08-23T19:06:02.531Z,24.49
2022-08-23T19:08:05.104Z,24.78
2022-08-23T19:10:07.904Z,24.72
2022-08-23T19:12:09.625Z,25.14
2022-08-23T19:14:11.475Z,25.67
2022-08-23T19:16:14.572Z,25.47
2022-08-23T19:18:16.197Z,24.79
2022-08-23T19:20:20.258Z,25.24
2022-08-23T19:22:21.842Z,25.42
2022-08-23T19:24:23.628Z,26.28
2022-08-23T19:26:27.877Z,24.55
2022-08-23T19:28:29.545Z,25.35
2022-08-23T19:30:31.409Z,26.66
2022-08-23T19:32:35.006Z,25.12
2022-08-23T19:34:36.655Z,25.37
2022-08-23T19:36:49.282Z,26.11
2022-08-23T19:38:58.265Z,25.30
2022-08-23T19:41:02.140Z,26.81
2022-08-23T19:43:04.103Z,25.50
2022-08-23T19:45:08.334Z,25.46
2022-08-23T19:47:19.375Z,25.10
2022-08-23T19:49:21.626Z,25.81
2022-08-23T19:51:23.278Z,26.36
2022-08-23T19:53:29.061Z,26.94
2022-08-23T19:55:30.706Z,25.30
2022-08-23T19:57:33.154Z,25.56
2022-08-23T19:59:37.685Z,25.58
2022-08-23T20:01:40.171Z,25.44
2022-08-23T20:03:41.907Z,25.57
2022-08-23T20:05:43.508Z,25.87
2022-08-23T20:07:46.013Z,25.76
2022-08-23T20:09:49.159Z,26.97
2022-08-23T20:11:52.079Z,25.68
2022-08-23T20:13:54.005Z,26.38
2022-08-23T20:15:56.420Z,26.70
2022-08-23T20:17:58.193Z,26.47
2022-08-23T20:19:59.848Z,25.36
2022-08-23T20:22:01.651Z,25.91
2022-08-23T20:24:04.373Z,27.49
2022-08-23T20:26:07.502Z,26.82
2022-08-23T20:28:11.004Z,25.99
2022-08-23T20:30:14.286Z,27.87
2022-08-23T20:32:15.903Z,26.50
2022-08-23T20:34:17.566Z,26.58
2022-08-23T20:36:19.667Z,26.54
2022-08-23T20:38:32.102Z,25.83
2022-08-23T20:40:35.753Z,25.71
2022-08-23T20:42:39.114Z,25.66
2022-08-23T20:44:40.749Z,26.19
2022-08-23T20:46:43.028Z,25.95
2022-08-23T20:48:44.866Z,25.66
2022-08-23T20:50:46.606Z,25.48
2022-08-23T20:52:48.282Z,25.74
2022-08-23T20:54:49.877Z,25.50
2022-08-23T20:56:52.734Z,26.02
2022-08-23T20:58:56.471Z,25.77
2022-08-23T21:00:58.608Z,25.80
2022-08-23T21:03:00.392Z,25.86
2022-08-23T21:05:02.055Z,25.59
2022-08-23T21:07:07.925Z,25.58
2022-08-23T21:09:10.767Z,26.26
2022-08-23T21:11:12.856Z,26.91
2022-08-23T21:13:14.497Z,26.19
2022-08-23T21:15:17.548Z,26.08
2022-08-23T21:17:19.327Z,26.90
2022-08-23T21:19:20.959Z,27.73
2022-08-23T21:21:24.643Z,26.70
2022-08-23T21:23:26.710Z,26.28
2022-08-23T21:25:28.379Z,25.92
2022-08-23T21:27:30.024Z,25.88
2022-08-23T21:29:31.604Z,25.97
2022-08-23T21:31:34.980Z,26.49
2022-08-23T21:33:40.181Z,26.78
2022-08-23T21:35:42.207Z,26.71
2022-08-23T21:37:43.925Z,27.42
2022-08-23T21:39:46.452Z,27.59
2022-08-23T21:41:48.583Z,26.11
2022-08-23T21:43:50.550Z,25.99
2022-08-23T21:45:52.285Z,25.89
2022-08-23T21:47:55.393Z,25.84
2022-08-23T21:49:57.258Z,25.92
2022-08-23T21:51:58.853Z,25.92
2022-08-23T21:54:00.669Z,25.90
2022-08-23T21:56:02.423Z,26.25
2022-08-23T21:58:04.018Z,26.65
2022-08-23T22:00:08.288Z,26.78
2022-08-23T22:02:09.953Z,26.86
2022-08-23T22:04:15.268Z,27.48
2022-08-23T22:06:17.514Z,27.40
2022-08-23T22:08:19.163Z,27.03
2022-08-23T22:10:22.062Z,27.56
2022-08-23T22:12:25.094Z,27.93
2022-08-23T22:14:31.254Z,27.80
2022-08-23T22:16:33.168Z,27.99
2022-08-23T22:18:35.136Z,27.81
2022-08-23T22:20:38.180Z,28.25
2022-08-23T22:22:40.136Z,28.08
2022-08-23T22:24:41.814Z,27.84
2022-08-23T22:26:44.520Z,28.37
2022-08-23T22:28:46.803Z,28.15
2022-08-23T22:30:48.548Z,27.94
2022-08-23T22:32:50.149Z,27.96
2022-08-23T22:34:51.926Z,28.48
2022-08-23T22:36:54.938Z,28.62
2022-08-23T22:38:56.706Z,28.61
2022-08-23T22:40:58.415Z,28.83
2022-08-23T22:43:00.313Z,28.62
2022-08-23T22:45:03.103Z,28.88
2022-08-23T22:47:04.998Z,29.40
2022-08-23T22:49:07.105Z,29.10
2022-08-23T22:51:11.539Z,29.18
2022-08-23T22:53:15.472Z,29.01
2022-08-23T22:55:17.275Z,28.80
2022-08-23T22:57:19.045Z,28.57
2022-08-23T22:59:27.674Z,29.17
2022-08-23T23:01:47.726Z,29.06
2022-08-23T23:03:51.443Z,29.06
2022-08-23T23:05:54.002Z,28.37
2022-08-23T23:07:55.568Z,29.35
2022-08-23T23:09:58.619Z,29.03
2022-08-23T23:12:00.220Z,29.25
2022-08-23T23:14:02.504Z,29.24
2022-08-23T23:16:06.976Z,29.86
2022-08-23T23:18:08.550Z,29.46
2022-08-23T23:20:11.043Z,29.55
2022-08-23T23:22:12.649Z,29.52
2022-08-23T23:24:16.842Z,29.20
2022-08-23T23:26:19.815Z,29.54
2022-08-23T23:28:22.007Z,30.16
2022-08-23T23:30:23.598Z,29.97
2022-08-23T23:32:25.197Z,29.69
2022-08-23T23:34:27.344Z,30.06
2022-08-23T23:36:29.136Z,29.75
2022-08-23T23:38:30.764Z,29.94
2022-08-23T23:40:33.037Z,29.84
2022-08-23T23:42:38.478Z,30.08
2022-08-23T23:44:40.194Z,30.06
2022-08-23T23:46:45.310Z,28.90
2022-08-23T23:48:51.490Z,29.65
2022-08-23T23:50:53.097Z,30.36
2022-08-23T23:52:54.812Z,30.36
2022-08-23T23:54:56.460Z,30.37
2022-08-23T23:56:58.072Z,30.06
2022-08-23T23:59:00.993Z,30.59
